createdAt,value
2024-03-12T00:00:22.361Z,10.50
2024-03-12T00:00:54.872Z,12.80
2024-03-12T00:01:27.614Z,12.30
2024-03-12T00:01:59.900Z,10.90
2024-03-12T00:02:32.314Z,11.60
2024-03-12T00:03:04.841Z,11.60
2024-03-12T00:03:37.394Z,10.20
2024-03-12T00:04:09.957Z,10.70
2024-03-12T00:04:42.519Z,10.50
2024-03-12T00:05:15.011Z,10.90
2024-03-12T00:05:47.618Z,11.70
2024-03-12T00:06:20.159Z,10.70
2024-03-12T00:06:52.775Z,10.30
2024-03-12T00:07:25.192Z,10.70
2024-03-12T00:07:57.676Z,10.90
2024-03-12T00:08:30.170Z,10.80
2024-03-12T00:09:02.756Z,11.60
2024-03-12T00:09:35.323Z,12.00
2024-03-12T00:10:07.899Z,12.00
2024-03-12T00:10:40.373Z,12.80
2024-03-12T00:11:12.894Z,12.50
2024-03-12T00:11:45.439Z,12.10
2024-03-12T00:12:17.906Z,10.80
2024-03-12T00:12:50.505Z,10.70
2024-03-12T00:13:22.991Z,11.40
2024-03-12T00:13:55.495Z,12.00
2024-03-12T00:14:28.060Z,12.30
2024-03-12T00:15:00.604Z,12.50
2024-03-12T00:15:33.194Z,12.60
2024-03-12T00:16:05.808Z,11.90
2024-03-12T00:16:38.195Z,11.70
2024-03-12T00:17:10.707Z,11.60
2024-03-12T00:17:43.240Z,11.50
2024-03-12T00:18:15.756Z,11.50
2024-03-12T00:18:48.322Z,12.10
2024-03-12T00:19:20.818Z,12.10
2024-03-12T00:19:53.286Z,12.00
2024-03-12T00:20:25.754Z,10.80
2024-03-12T00:20:58.222Z,11.60
2024-03-12T00:21:30.911Z,12.40
2024-03-12T00:22:03.294Z,11.20
2024-03-12T00:22:35.757Z,11.30
2024-03-12T00:23:08.263Z,12.10
2024-03-12T00:23:40.755Z,12.00
2024-03-12T00:24:13.296Z,10.90
2024-03-12T00:24:45.883Z,11.70
2024-03-12T00:25:18.262Z,12.10
2024-03-12T00:25:50.831Z,12.30
2024-03-12T00:26:23.304Z,13.10
2024-03-12T00:26:55.783Z,12.60
2024-03-12T00:27:28.372Z,11.90
2024-03-12T00:28:01.040Z,10.70
2024-03-12T00:28:33.324Z,11.30
2024-03-12T00:29:05.816Z,12.60
2024-03-12T00:29:38.317Z,12.30
2024-03-12T00:30:10.864Z,11.00
2024-03-12T00:30:43.368Z,11.10
2024-03-12T00:31:15.870Z,11.90
2024-03-12T00:31:48.378Z,12.00
2024-03-12T00:32:20.906Z,11.20
2024-03-12T00:32:53.538Z,11.30
2024-03-12T00:33:26.087Z,11.10
2024-03-12T00:33:58.572Z,11.20
2024-03-12T00:34:31.093Z,12.10
2024-03-12T00:35:03.600Z,11.80
2024-03-12T00:35:36.131Z,11.50
2024-03-12T00:36:08.689Z,12.40
2024-03-12T00:36:41.178Z,11.90
2024-03-12T00:37:13.772Z,11.30
2024-03-12T00:37:46.201Z,11.80
2024-03-12T00:38:18.674Z,13.40
2024-03-12T00:38:51.298Z,12.30
2024-03-12T00:39:23.830Z,10.60
2024-03-12T00:39:56.367Z,10.40
2024-03-12T00:40:28.863Z,10.40
2024-03-12T00:41:01.398Z,11.50
2024-03-12T00:41:33.897Z,11.60
2024-03-12T00:42:06.354Z,10.70
2024-03-12T00:42:38.876Z,11.80
2024-03-12T00:43:11.351Z,12.00
2024-03-12T00:43:44.015Z,10.70
2024-03-12T00:44:16.302Z,11.10
2024-03-12T00:44:48.921Z,11.30
2024-03-12T00:45:21.489Z,12.10
2024-03-12T00:45:53.777Z,12.00
2024-03-12T00:46:26.308Z,11.60
2024-03-12T00:46:58.846Z,12.20
2024-03-12T00:47:31.318Z,11.20
2024-03-12T00:48:03.967Z,10.30
2024-03-12T00:48:36.408Z,11.20
2024-03-12T00:49:08.919Z,12.40
2024-03-12T00:49:41.357Z,13.00
2024-03-12T00:50:13.906Z,13.40
2024-03-12T00:50:46.733Z,11.90
2024-03-12T00:51:18.925Z,11.00
2024-03-12T00:51:51.429Z,11.90
2024-03-12T00:52:23.874Z,12.60
2024-03-12T00:52:56.394Z,10.70
2024-03-12T00:53:28.901Z,10.20
2024-03-12T00:54:01.423Z,11.40
2024-03-12T00:54:33.941Z,11.90
2024-03-12T00:55:06.471Z,11.50
2024-03-12T00:55:38.908Z,11.50
2024-03-12T00:56:11.363Z,13.30
2024-03-12T00:56:43.898Z,12.80
2024-03-12T00:57:16.413Z,12.20
2024-03-12T00:57:49.022Z,12.60
2024-03-12T00:58:22.217Z,12.20
2024-03-12T00:58:53.937Z,13.00
2024-03-12T00:59:26.435Z,12.10
2024-03-12T00:59:58.919Z,11.00
2024-03-12T01:00:31.512Z,11.50
2024-03-12T01:01:04.026Z,11.80
2024-03-12T01:01:36.601Z,13.00
2024-03-12T01:02:09.013Z,12.50
2024-03-12T01:02:41.524Z,11.60
2024-03-12T01:03:14.034Z,10.90
2024-03-12T01:03:46.626Z,10.80
2024-03-12T01:04:19.130Z,11.70
2024-03-12T01:04:51.619Z,11.40
2024-03-12T01:05:24.134Z,12.00
2024-03-12T01:05:56.616Z,13.10
2024-03-12T01:06:29.128Z,12.40
2024-03-12T01:07:01.633Z,11.60
2024-03-12T01:07:34.068Z,11.70
2024-03-12T01:08:06.524Z,11.90
2024-03-12T01:08:39.038Z,12.00
2024-03-12T01:09:11.567Z,12.30
2024-03-12T01:09:44.051Z,11.70
2024-03-12T01:10:16.592Z,11.90
2024-03-12T01:10:49.136Z,12.50
2024-03-12T01:11:21.633Z,12.70
2024-03-12T01:11:54.016Z,12.60
2024-03-12T01:12:26.553Z,12.00
2024-03-12T01:12:59.046Z,12.70
2024-03-12T01:13:31.522Z,12.70
2024-03-12T01:14:04.048Z,12.20
2024-03-12T01:14:36.583Z,12.80
2024-03-12T01:15:09.070Z,11.90
2024-03-12T01:15:41.827Z,11.90
2024-03-12T01:16:14.154Z,12.10
2024-03-12T01:16:46.630Z,13.60
2024-03-12T01:17:19.095Z,12.80
2024-03-12T01:17:51.597Z,11.90
2024-03-12T01:18:24.062Z,11.50
2024-03-12T01:18:56.604Z,10.60
2024-03-12T01:19:48.429Z,10.90
2024-03-12T01:20:20.853Z,12.10
2024-03-12T01:20:53.398Z,11.60
2024-03-12T01:21:25.841Z,11.90
2024-03-12T01:21:58.379Z,11.40
2024-03-12T01:22:30.838Z,11.80
2024-03-12T01:23:03.354Z,16.30
2024-03-12T01:23:35.878Z,14.50
2024-03-12T01:24:08.403Z,12.80
2024-03-12T01:24:41.011Z,12.50
2024-03-12T01:25:13.513Z,12.40
2024-03-12T01:25:45.939Z,13.30
2024-03-12T01:26:18.435Z,12.90
2024-03-12T01:26:50.914Z,12.60
2024-03-12T01:27:24.429Z,12.20
2024-03-12T01:27:57.314Z,12.40
2024-03-12T01:28:29.425Z,12.70
2024-03-12T01:29:01.917Z,12.30
2024-03-12T01:29:34.421Z,12.80
2024-03-12T01:30:06.926Z,12.50
2024-03-12T01:30:39.490Z,12.70
2024-03-12T01:31:12.003Z,12.00
2024-03-12T01:31:44.414Z,11.80
2024-03-12T01:32:16.941Z,12.70
2024-03-12T01:32:49.478Z,12.80
2024-03-12T01:33:21.970Z,12.20
2024-03-12T01:33:54.582Z,12.90
2024-03-12T01:34:27.008Z,12.50
2024-03-12T01:34:59.510Z,12.30
2024-03-12T01:35:32.380Z,12.40
2024-03-12T01:36:04.558Z,12.30
2024-03-12T01:36:37.085Z,12.20
2024-03-12T01:37:09.595Z,13.00
2024-03-12T01:37:42.110Z,12.50
2024-03-12T01:38:14.771Z,11.90
2024-03-12T01:38:47.277Z,12.00
2024-03-12T01:39:19.775Z,12.90
2024-03-12T01:39:52.486Z,13.60
2024-03-12T01:40:24.883Z,14.70
2024-03-12T01:40:57.378Z,15.20
2024-03-12T01:41:30.074Z,14.10
2024-03-12T01:42:02.560Z,13.50
2024-03-12T01:42:35.112Z,12.90
2024-03-12T01:43:08.325Z,12.70
2024-03-12T01:43:40.044Z,13.10
2024-03-12T01:44:12.600Z,13.30
2024-03-12T01:44:45.179Z,14.10
2024-03-12T01:45:17.673Z,14.80
2024-03-12T01:45:50.258Z,15.70
2024-03-12T01:46:22.689Z,15.00
2024-03-12T01:46:55.294Z,12.80
2024-03-12T01:47:27.848Z,13.90
2024-03-12T01:48:00.450Z,14.60
2024-03-12T01:48:32.886Z,15.10
2024-03-12T01:49:05.336Z,14.70
2024-03-12T01:49:37.816Z,13.70
2024-03-12T01:50:10.288Z,14.80
2024-03-12T01:50:43.117Z,14.30
2024-03-12T01:51:15.319Z,13.10
2024-03-12T01:51:47.927Z,13.40
2024-03-12T01:52:20.382Z,15.10
2024-03-12T01:52:52.872Z,14.70
2024-03-12T01:53:25.358Z,14.90
2024-03-12T01:53:57.914Z,14.70
2024-03-12T01:54:30.568Z,14.10
2024-03-12T01:55:03.101Z,14.00
2024-03-12T01:55:35.595Z,15.60
2024-03-12T01:56:08.144Z,16.80
2024-03-12T01:56:40.694Z,15.50
2024-03-12T01:57:13.176Z,16.00
2024-03-12T01:57:45.791Z,17.30
2024-03-12T01:58:18.604Z,15.00
2024-03-12T01:58:50.877Z,12.60
2024-03-12T01:59:23.417Z,13.90
2024-03-12T01:59:55.943Z,15.70
2024-03-12T02:00:28.605Z,15.30
2024-03-12T02:01:01.232Z,14.90
2024-03-12T02:01:33.666Z,14.00
2024-03-12T02:02:06.079Z,13.40
2024-03-12T02:02:38.586Z,13.60
2024-03-12T02:03:11.093Z,13.60
2024-03-12T02:03:43.651Z,14.70
2024-03-12T02:04:16.162Z,13.80
2024-03-12T02:04:48.626Z,14.30
2024-03-12T02:05:21.169Z,14.40
2024-03-12T02:05:53.726Z,15.10
2024-03-12T02:06:26.252Z,16.00
2024-03-12T02:06:58.723Z,14.00
2024-03-12T02:07:31.203Z,13.40
2024-03-12T02:08:03.713Z,14.50
2024-03-12T02:08:36.208Z,14.80
2024-03-12T02:09:08.759Z,15.80
2024-03-12T02:09:41.260Z,15.70
2024-03-12T02:10:13.792Z,14.80
2024-03-12T02:10:46.313Z,14.70
2024-03-12T02:11:18.848Z,14.90
2024-03-12T02:11:51.361Z,14.10
2024-03-12T02:12:24.049Z,13.60
2024-03-12T02:12:56.464Z,15.60
2024-03-12T02:13:28.919Z,16.10
2024-03-12T02:14:01.489Z,15.90
2024-03-12T02:14:34.046Z,16.30
2024-03-12T02:15:06.523Z,15.70
2024-03-12T02:15:39.111Z,14.90
2024-03-12T02:16:11.642Z,15.50
2024-03-12T02:16:44.022Z,15.60
2024-03-12T02:17:16.511Z,15.80
2024-03-12T02:17:49.136Z,15.80
2024-03-12T02:18:21.655Z,17.20
2024-03-12T02:18:54.108Z,16.20
2024-03-12T02:19:26.660Z,14.50
2024-03-12T02:19:59.201Z,14.10
2024-03-12T02:20:31.684Z,15.10
2024-03-12T02:21:04.194Z,16.90
2024-03-12T02:21:36.754Z,16.60
2024-03-12T02:22:09.276Z,16.20
2024-03-12T02:22:41.720Z,16.10
2024-03-12T02:23:14.270Z,16.10
2024-03-12T02:23:46.775Z,16.10
2024-03-12T02:24:19.263Z,17.70
2024-03-12T02:24:51.894Z,16.80
2024-03-12T02:25:24.777Z,14.60
2024-03-12T02:25:56.860Z,15.70
2024-03-12T02:26:29.353Z,17.20
2024-03-12T02:27:01.947Z,16.30
2024-03-12T02:27:34.462Z,15.90
2024-03-12T02:28:07.038Z,16.10
2024-03-12T02:28:39.466Z,15.90
2024-03-12T02:29:11.960Z,15.50
2024-03-12T02:29:44.447Z,16.50
2024-03-12T02:30:16.989Z,14.50
2024-03-12T02:30:49.539Z,13.60
2024-03-12T02:31:22.001Z,14.50
2024-03-12T02:31:54.458Z,13.90
2024-03-12T02:32:27.048Z,13.30
2024-03-12T02:32:59.621Z,14.50
2024-03-12T02:33:32.252Z,16.50
2024-03-12T02:34:04.834Z,16.70
2024-03-12T02:34:37.175Z,15.20
2024-03-12T02:35:09.712Z,17.10
2024-03-12T02:35:42.228Z,17.80
2024-03-12T02:36:14.773Z,15.90
2024-03-12T02:36:47.416Z,15.50
2024-03-12T02:37:19.766Z,14.80
2024-03-12T02:37:52.290Z,14.60
2024-03-12T02:38:24.816Z,15.40
2024-03-12T02:38:57.333Z,14.80
2024-03-12T02:39:29.878Z,13.90
2024-03-12T02:40:02.467Z,13.00
2024-03-12T02:40:34.875Z,15.40
2024-03-12T02:41:07.414Z,17.70
2024-03-12T02:41:39.914Z,18.00
2024-03-12T02:42:12.477Z,16.50
2024-03-12T02:42:45.583Z,14.80
2024-03-12T02:43:17.468Z,13.30
2024-03-12T02:43:49.924Z,15.60
2024-03-12T02:44:22.469Z,15.70
2024-03-12T02:44:54.963Z,14.80
2024-03-12T02:45:27.442Z,15.80
2024-03-12T02:46:00.027Z,16.50
2024-03-12T02:46:32.445Z,16.00
2024-03-12T02:47:04.959Z,15.10
2024-03-12T02:47:37.430Z,14.70
2024-03-12T02:48:09.947Z,16.20
2024-03-12T02:48:42.446Z,16.50
2024-03-12T02:49:15.057Z,15.60
2024-03-12T02:49:47.495Z,16.30
2024-03-12T02:50:20.010Z,17.20
2024-03-12T02:50:52.534Z,17.10
2024-03-12T02:51:25.201Z,16.00
2024-03-12T02:51:57.638Z,16.60
2024-03-12T02:52:30.130Z,17.30
2024-03-12T02:53:02.661Z,16.20
2024-03-12T02:53:35.188Z,15.50
2024-03-12T02:54:07.719Z,18.10
2024-03-12T02:54:40.235Z,18.20
2024-03-12T02:55:12.801Z,16.50
2024-03-12T02:55:45.244Z,14.90
2024-03-12T02:56:17.755Z,15.00
2024-03-12T02:56:50.266Z,17.00
2024-03-12T02:57:22.813Z,17.70
2024-03-12T02:57:55.354Z,15.90
2024-03-12T02:58:27.879Z,15.10
2024-03-12T02:59:00.389Z,17.10
2024-03-12T02:59:33.189Z,17.60
2024-03-12T03:00:05.696Z,16.20
2024-03-12T03:00:38.359Z,15.80
2024-03-12T03:01:11.011Z,16.40
2024-03-12T03:01:43.608Z,16.90
2024-03-12T03:02:16.090Z,17.20
2024-03-12T03:02:48.667Z,18.40
2024-03-12T03:03:21.193Z,17.40
2024-03-12T03:03:53.869Z,16.00
2024-03-12T03:04:26.319Z,17.20
2024-03-12T03:04:58.864Z,16.20
2024-03-12T03:05:31.392Z,16.30
2024-03-12T03:06:03.944Z,17.20
2024-03-12T03:06:36.516Z,17.00
2024-03-12T03:07:09.108Z,17.70
2024-03-12T03:07:41.691Z,16.30
2024-03-12T03:08:14.005Z,15.10
2024-03-12T03:08:46.887Z,17.00
2024-03-12T03:09:19.402Z,17.70
2024-03-12T03:09:51.902Z,16.10
2024-03-12T03:10:24.677Z,15.30
2024-03-12T03:10:57.199Z,16.40
2024-03-12T03:11:29.712Z,18.50
2024-03-12T03:12:02.162Z,18.60
2024-03-12T03:12:34.676Z,17.10
2024-03-12T03:13:07.307Z,17.70
2024-03-12T03:13:39.722Z,16.30
2024-03-12T03:14:12.380Z,15.30
2024-03-12T03:14:44.892Z,15.90
2024-03-12T03:15:17.441Z,16.80
2024-03-12T03:15:50.069Z,18.50
2024-03-12T03:16:22.552Z,19.80
2024-03-12T03:16:55.126Z,19.60
2024-03-12T03:17:27.653Z,17.50
2024-03-12T03:18:00.525Z,15.90
2024-03-12T03:18:32.980Z,15.00
2024-03-12T03:19:05.635Z,14.80
2024-03-12T03:19:38.059Z,16.30
2024-03-12T03:20:10.648Z,18.00
2024-03-12T03:20:43.164Z,18.40
2024-03-12T03:21:15.691Z,17.60
2024-03-12T03:21:48.278Z,17.40
2024-03-12T03:22:20.779Z,19.30
2024-03-12T03:22:53.293Z,19.80
2024-03-12T03:23:25.831Z,19.30
2024-03-12T03:23:58.410Z,17.10
2024-03-12T03:24:31.000Z,17.40
2024-03-12T03:25:03.613Z,18.40
2024-03-12T03:25:36.133Z,18.70
2024-03-12T03:26:08.621Z,19.50
2024-03-12T03:26:41.074Z,18.40
2024-03-12T03:27:13.609Z,18.40
2024-03-12T03:27:46.184Z,17.50
2024-03-12T03:28:18.680Z,16.80
2024-03-12T03:28:51.195Z,18.50
2024-03-12T03:29:23.657Z,20.10
2024-03-12T03:29:56.187Z,17.00
2024-03-12T03:30:28.791Z,18.60
2024-03-12T03:31:01.637Z,19.90
2024-03-12T03:31:33.764Z,17.90
2024-03-12T03:32:06.279Z,17.10
2024-03-12T03:32:38.852Z,19.40
2024-03-12T03:33:11.404Z,20.20
2024-03-12T03:33:43.861Z,19.00
2024-03-12T03:34:16.346Z,20.10
2024-03-12T03:34:48.868Z,20.10
2024-03-12T03:35:21.356Z,18.60
2024-03-12T03:35:53.907Z,18.80
2024-03-12T03:36:26.448Z,18.00
2024-03-12T03:36:58.938Z,17.80
2024-03-12T03:37:31.444Z,18.70
2024-03-12T03:38:03.946Z,18.10
2024-03-12T03:38:36.424Z,19.50
2024-03-12T03:39:08.968Z,19.80
2024-03-12T03:39:41.575Z,18.70
2024-03-12T03:40:14.204Z,18.90
2024-03-12T03:40:47.309Z,19.30
2024-03-12T03:41:19.814Z,18.80
2024-03-12T03:41:52.324Z,17.60
2024-03-12T03:42:24.888Z,17.90
2024-03-12T03:42:57.778Z,18.20
2024-03-12T03:43:29.891Z,18.90
2024-03-12T03:44:02.418Z,18.10
2024-03-12T03:44:34.949Z,17.10
2024-03-12T03:45:07.542Z,17.80
2024-03-12T03:45:40.094Z,16.70
2024-03-12T03:46:12.623Z,17.50
2024-03-12T03:46:45.161Z,18.10
2024-03-12T03:47:17.640Z,18.60
2024-03-12T03:47:50.235Z,18.20
2024-03-12T03:48:22.786Z,17.80
2024-03-12T03:48:55.358Z,17.20
2024-03-12T03:49:27.850Z,18.40
2024-03-12T03:50:00.393Z,19.30
2024-03-12T03:50:32.944Z,19.60
2024-03-12T03:51:05.360Z,19.00
2024-03-12T03:51:37.932Z,19.30
2024-03-12T03:52:10.476Z,19.10
2024-03-12T03:52:42.983Z,17.80
2024-03-12T03:53:15.480Z,18.30
2024-03-12T03:53:47.970Z,18.10
2024-03-12T03:54:20.470Z,19.80
2024-03-12T03:54:53.110Z,19.90
2024-03-12T03:55:25.630Z,19.10
2024-03-12T03:55:58.141Z,19.70
2024-03-12T03:56:30.688Z,19.40
2024-03-12T03:57:03.202Z,19.10
2024-03-12T03:57:36.068Z,19.70
2024-03-12T03:58:08.782Z,19.80
2024-03-12T03:58:41.093Z,19.50
2024-03-12T03:59:13.648Z,20.30
2024-03-12T03:59:46.162Z,19.90
2024-03-12T04:00:18.843Z,18.80
2024-03-12T04:00:51.537Z,20.30
2024-03-12T04:01:23.923Z,20.10
2024-03-12T04:01:56.500Z,19.70
2024-03-12T04:02:28.870Z,18.50
2024-03-12T04:03:01.429Z,17.70
2024-03-12T04:03:34.007Z,19.20
2024-03-12T04:04:06.609Z,20.00
2024-03-12T04:04:39.087Z,20.30
2024-03-12T04:05:11.623Z,18.60
2024-03-12T04:05:44.153Z,18.50
2024-03-12T04:06:16.690Z,18.50
2024-03-12T04:06:50.982Z,17.00
2024-03-12T04:07:21.790Z,18.00
2024-03-12T04:07:54.229Z,20.90
2024-03-12T04:08:26.764Z,22.90
2024-03-12T04:08:59.273Z,22.00
2024-03-12T04:09:31.825Z,18.80
2024-03-12T04:10:04.582Z,20.10
2024-03-12T04:10:37.008Z,20.70
2024-03-12T04:11:09.532Z,18.60
2024-03-12T04:11:42.183Z,18.60
2024-03-12T04:12:14.726Z,19.50
2024-03-12T04:12:47.289Z,20.90
2024-03-12T04:13:19.845Z,22.10
2024-03-12T04:13:52.404Z,21.70
2024-03-12T04:14:24.861Z,19.90
2024-03-12T04:14:57.460Z,19.40
2024-03-12T04:15:30.455Z,19.80
2024-03-12T04:16:02.596Z,20.90
2024-03-12T04:16:35.105Z,21.80
2024-03-12T04:17:07.655Z,21.20
2024-03-12T04:17:40.193Z,21.40
2024-03-12T04:18:12.700Z,20.90
2024-03-12T04:18:45.227Z,20.60
2024-03-12T04:19:17.810Z,21.00
2024-03-12T04:19:50.315Z,21.00
2024-03-12T04:20:22.825Z,22.90
2024-03-12T04:20:55.321Z,23.80
2024-03-12T04:21:28.039Z,22.50
2024-03-12T04:22:00.350Z,23.10
2024-03-12T04:22:32.777Z,21.40
2024-03-12T04:23:05.297Z,21.10
2024-03-12T04:23:37.828Z,21.30
2024-03-12T04:24:10.344Z,22.90
2024-03-12T04:24:42.875Z,25.10
2024-03-12T04:25:15.384Z,24.90
2024-03-12T04:25:47.860Z,23.20
2024-03-12T04:26:20.330Z,22.40
2024-03-12T04:26:52.841Z,21.40
2024-03-12T04:27:25.436Z,22.80
2024-03-12T04:27:58.026Z,22.30
2024-03-12T04:28:30.484Z,24.30
2024-03-12T04:29:03.025Z,23.90
2024-03-12T04:29:35.526Z,22.40
2024-03-12T04:30:08.050Z,24.70
2024-03-12T04:30:40.705Z,23.40
2024-03-12T04:31:13.128Z,22.40
2024-03-12T04:31:45.614Z,22.30
2024-03-12T04:32:18.173Z,23.00
2024-03-12T04:32:50.747Z,23.20
2024-03-12T04:33:23.351Z,23.90
2024-03-12T04:33:55.901Z,24.80
2024-03-12T04:34:28.366Z,24.20
2024-03-12T04:35:00.920Z,23.70
2024-03-12T04:35:33.444Z,24.90
2024-03-12T04:36:06.064Z,25.10
2024-03-12T04:36:38.623Z,25.00
2024-03-12T04:37:11.248Z,26.40
2024-03-12T04:37:43.741Z,25.20
2024-03-12T04:38:17.361Z,24.10
2024-03-12T04:38:48.655Z,24.80
2024-03-12T04:39:21.189Z,24.70
2024-03-12T04:39:53.808Z,26.90
2024-03-12T04:40:26.330Z,26.60
2024-03-12T04:40:58.737Z,25.30
2024-03-12T04:41:31.266Z,25.30
2024-03-12T04:42:03.819Z,25.70
2024-03-12T04:42:36.441Z,26.50
2024-03-12T04:43:08.957Z,26.50
2024-03-12T04:43:41.318Z,25.20
2024-03-12T04:44:13.825Z,26.50
2024-03-12T04:44:46.339Z,26.20
2024-03-12T04:45:18.822Z,24.20
2024-03-12T04:45:51.378Z,26.60
2024-03-12T04:46:23.949Z,27.70
2024-03-12T04:46:56.446Z,27.00
2024-03-12T04:47:28.946Z,25.50
2024-03-12T04:48:01.575Z,25.70
2024-03-12T04:48:33.948Z,25.80
2024-03-12T04:49:06.507Z,25.50
2024-03-12T04:49:38.957Z,25.80
2024-03-12T04:50:11.492Z,26.30
2024-03-12T04:50:44.086Z,27.10
2024-03-12T04:51:16.640Z,26.40
2024-03-12T04:51:49.198Z,24.80
2024-03-12T04:52:21.676Z,25.40
2024-03-12T04:52:54.187Z,25.60
2024-03-12T04:53:26.846Z,25.10
2024-03-12T04:53:59.251Z,27.00
2024-03-12T04:54:31.836Z,27.80
2024-03-12T04:55:04.431Z,28.30
2024-03-12T04:55:36.869Z,27.80
2024-03-12T04:56:09.497Z,25.70
2024-03-12T04:56:41.957Z,25.50
2024-03-12T04:57:14.489Z,24.20
2024-03-12T04:57:47.091Z,23.90
2024-03-12T04:58:19.633Z,25.60
2024-03-12T04:58:52.131Z,27.50
2024-03-12T04:59:24.666Z,26.40
2024-03-12T04:59:57.212Z,26.10
2024-03-12T05:00:32.470Z,27.20
2024-03-12T05:01:02.304Z,26.90
2024-03-12T05:01:35.049Z,25.10
2024-03-12T05:02:07.361Z,25.90
2024-03-12T05:02:39.811Z,26.20
2024-03-12T05:03:12.291Z,25.40
2024-03-12T05:03:44.846Z,26.10
2024-03-12T05:04:22.251Z,24.70
2024-03-12T05:04:49.786Z,25.10
2024-03-12T05:05:23.308Z,27.60
2024-03-12T05:05:55.858Z,27.00
2024-03-12T05:06:28.394Z,24.90
2024-03-12T05:07:01.465Z,25.40
2024-03-12T05:07:34.116Z,25.70
2024-03-12T05:08:06.675Z,25.90
2024-03-12T05:08:39.159Z,27.80
2024-03-12T05:09:11.694Z,27.50
2024-03-12T05:09:44.242Z,26.70
2024-03-12T05:10:16.859Z,26.50
2024-03-12T05:10:49.163Z,25.70
2024-03-12T05:11:21.680Z,24.50
2024-03-12T05:11:54.133Z,25.00
2024-03-12T05:12:26.626Z,25.90
2024-03-12T05:12:59.170Z,27.50
2024-03-12T05:13:31.623Z,27.80
2024-03-12T05:14:04.099Z,27.20
2024-03-12T05:14:36.605Z,26.40
2024-03-12T05:15:09.178Z,25.20
2024-03-12T05:15:41.754Z,25.90
2024-03-12T05:16:14.264Z,26.90
2024-03-12T05:16:47.035Z,26.80
2024-03-12T05:17:20.287Z,24.40
2024-03-12T05:17:54.080Z,23.90
2024-03-12T05:18:26.598Z,25.90
2024-03-12T05:18:59.100Z,25.00
2024-03-12T05:19:31.631Z,24.90
2024-03-12T05:20:04.129Z,25.10
2024-03-12T05:20:36.670Z,25.30
2024-03-12T05:21:09.239Z,24.90
2024-03-12T05:21:41.716Z,25.20
2024-03-12T05:22:14.221Z,24.40
2024-03-12T05:22:46.697Z,23.60
2024-03-12T05:23:19.200Z,24.30
2024-03-12T05:23:51.696Z,25.90
2024-03-12T05:24:24.233Z,25.40
2024-03-12T05:29:19.568Z,25.80
2024-03-12T05:29:52.073Z,24.30
2024-03-12T05:30:24.917Z,24.30
2024-03-12T05:30:57.098Z,22.30
2024-03-12T05:31:29.669Z,23.60
2024-03-12T05:32:02.277Z,23.00
2024-03-12T05:32:34.843Z,23.40
2024-03-12T05:33:07.309Z,25.60
2024-03-12T05:33:40.008Z,24.30
2024-03-12T05:34:12.289Z,24.30
2024-03-12T05:34:44.719Z,22.70
2024-03-12T05:35:17.237Z,22.90
2024-03-12T05:35:49.731Z,23.90
2024-03-12T05:36:22.223Z,23.30
2024-03-12T05:36:54.866Z,23.50
2024-03-12T05:37:27.197Z,23.00
2024-03-12T05:37:59.694Z,23.30
2024-03-12T05:38:32.175Z,23.00
2024-03-12T05:39:04.675Z,22.50
2024-03-12T05:39:37.233Z,23.00
2024-03-12T05:40:09.992Z,24.40
2024-03-12T05:40:42.212Z,25.00
2024-03-12T05:41:14.682Z,24.40
2024-03-12T05:41:47.182Z,22.60
2024-03-12T05:42:19.663Z,22.50
2024-03-12T05:42:52.215Z,25.80
2024-03-12T05:43:24.668Z,27.10
2024-03-12T05:43:57.194Z,25.10
2024-03-12T05:44:29.701Z,24.10
2024-03-12T05:45:02.268Z,25.40
2024-03-12T05:45:34.837Z,24.40
2024-03-12T05:46:07.306Z,22.40
2024-03-12T05:46:39.885Z,23.10
2024-03-12T05:47:12.266Z,23.90
2024-03-12T05:47:44.860Z,22.10
2024-03-12T05:48:17.255Z,23.00
2024-03-12T05:48:49.842Z,24.00
2024-03-12T05:49:22.339Z,24.40
2024-03-12T05:49:54.821Z,23.50
2024-03-12T05:50:27.326Z,23.60
2024-03-12T05:50:59.796Z,24.40
2024-03-12T05:51:32.351Z,24.10
2024-03-12T05:52:04.843Z,23.00
2024-03-12T05:52:37.295Z,24.10
2024-03-12T05:53:09.866Z,25.90
2024-03-12T05:53:42.288Z,26.10
2024-03-12T05:54:14.743Z,24.30
2024-03-12T05:54:47.284Z,22.00
2024-03-12T05:55:19.778Z,23.40
2024-03-12T05:55:52.202Z,24.80
2024-03-12T05:56:24.731Z,25.40
2024-03-12T05:56:57.195Z,23.90
2024-03-12T05:57:29.716Z,22.90
2024-03-12T05:58:02.278Z,22.80
2024-03-12T05:58:34.786Z,23.70
2024-03-12T05:59:07.268Z,24.40
2024-03-12T05:59:39.828Z,24.90
2024-03-12T06:00:12.284Z,26.10
2024-03-12T06:00:44.818Z,23.80
2024-03-12T06:01:17.442Z,23.20
2024-03-12T06:01:49.900Z,24.00
2024-03-12T06:02:22.295Z,21.40
2024-03-12T06:02:54.815Z,21.90
2024-03-12T06:03:27.304Z,22.30
2024-03-12T06:03:59.942Z,23.00
2024-03-12T06:04:32.341Z,23.40
2024-03-12T06:05:04.809Z,23.20
2024-03-12T06:05:37.385Z,22.70
2024-03-12T06:06:09.897Z,21.70
2024-03-12T06:06:42.446Z,22.60
2024-03-12T06:07:15.809Z,23.00
2024-03-12T06:07:47.469Z,25.80
2024-03-12T06:08:20.058Z,25.20
2024-03-12T06:08:52.545Z,22.60
2024-03-12T06:09:25.068Z,22.80
2024-03-12T06:09:57.685Z,23.00
2024-03-12T06:10:30.090Z,23.20
2024-03-12T06:11:02.639Z,24.20
2024-03-12T06:11:35.192Z,25.10
2024-03-12T06:12:07.632Z,26.20
2024-03-12T06:12:40.215Z,25.50
2024-03-12T06:13:12.707Z,24.30
2024-03-12T06:13:45.184Z,24.80
2024-03-12T06:14:17.624Z,23.50
2024-03-12T06:14:50.209Z,22.70
2024-03-12T06:15:22.684Z,24.50
2024-03-12T06:15:55.212Z,25.20
2024-03-12T06:16:27.701Z,25.80
2024-03-12T06:17:00.284Z,25.60
2024-03-12T06:17:32.737Z,24.40
2024-03-12T06:18:05.268Z,25.30
2024-03-12T06:18:37.792Z,24.80
2024-03-12T06:19:10.275Z,24.90
2024-03-12T06:19:42.756Z,25.90
2024-03-12T06:20:15.249Z,26.20
2024-03-12T06:20:47.748Z,26.40
2024-03-12T06:21:20.240Z,25.40
2024-03-12T06:21:52.773Z,25.60
2024-03-12T06:22:25.260Z,25.50
2024-03-12T06:22:57.725Z,26.00
2024-03-12T06:23:30.204Z,25.40
2024-03-12T06:24:02.660Z,26.30
2024-03-12T06:24:35.204Z,27.80
2024-03-12T06:25:07.825Z,29.00
2024-03-12T06:25:40.834Z,27.30
2024-03-12T06:26:13.325Z,26.90
2024-03-12T06:26:45.852Z,24.90
2024-03-12T06:27:18.341Z,25.70
2024-03-12T06:27:50.981Z,25.50
2024-03-12T06:28:23.613Z,25.40
2024-03-12T06:28:55.968Z,26.10
2024-03-12T06:29:28.418Z,27.30
2024-03-12T06:30:00.935Z,27.60
2024-03-12T06:30:33.519Z,28.70
2024-03-12T06:31:06.108Z,29.10
2024-03-12T06:31:38.494Z,28.60
2024-03-12T06:32:10.977Z,29.20
2024-03-12T06:32:43.576Z,26.50
2024-03-12T06:33:16.008Z,24.80
2024-03-12T06:33:48.606Z,25.50
2024-03-12T06:34:21.217Z,26.30
2024-03-12T06:34:53.650Z,25.40
2024-03-12T06:35:26.163Z,25.40
2024-03-12T06:35:58.672Z,28.00
2024-03-12T06:36:31.227Z,28.70
2024-03-12T06:37:03.841Z,26.50
2024-03-12T06:37:36.248Z,25.10
2024-03-12T06:38:08.750Z,26.90
2024-03-12T06:38:41.225Z,26.70
2024-03-12T06:39:13.731Z,27.90
2024-03-12T06:39:46.334Z,30.20
2024-03-12T06:40:18.846Z,27.90
2024-03-12T06:40:51.235Z,26.50
2024-03-12T06:41:23.714Z,26.50
2024-03-12T06:41:56.255Z,25.60
2024-03-12T06:42:28.776Z,26.10
2024-03-12T06:43:01.311Z,25.50
2024-03-12T06:43:33.786Z,25.40
2024-03-12T06:44:06.474Z,25.20
2024-03-12T06:44:39.000Z,25.90
2024-03-12T06:45:11.540Z,26.10
2024-03-12T06:45:44.152Z,27.40
2024-03-12T06:46:16.573Z,26.60
2024-03-12T06:46:49.043Z,25.20
2024-03-12T06:47:21.571Z,24.60
2024-03-12T06:47:54.098Z,23.70
2024-03-12T06:48:26.570Z,22.90
2024-03-12T06:48:59.065Z,25.80
2024-03-12T06:49:31.494Z,27.10
2024-03-12T06:50:05.583Z,26.50
2024-03-12T06:50:36.509Z,24.40
2024-03-12T06:51:09.473Z,23.60
2024-03-12T06:51:41.957Z,26.00
2024-03-12T06:52:14.467Z,25.20
2024-03-12T06:52:46.933Z,23.90
2024-03-12T06:53:19.416Z,26.40
2024-03-12T06:53:51.931Z,25.90
2024-03-12T06:54:24.441Z,24.50
2024-03-12T06:54:57.041Z,24.00
2024-03-12T06:55:29.462Z,23.70
2024-03-12T06:56:01.979Z,23.90
2024-03-12T06:56:34.471Z,24.20
2024-03-12T06:57:07.029Z,24.70
2024-03-12T06:57:39.582Z,26.10
2024-03-12T06:58:12.804Z,28.30
2024-03-12T06:58:45.101Z,26.60
2024-03-12T06:59:17.618Z,24.30
2024-03-12T06:59:50.195Z,23.50
2024-03-12T07:00:22.630Z,24.20
2024-03-12T07:00:55.188Z,25.60
2024-03-12T07:01:27.760Z,25.70
2024-03-12T07:02:00.258Z,25.50
2024-03-12T07:02:32.719Z,24.90
2024-03-12T07:03:05.217Z,22.80
2024-03-12T07:03:37.772Z,22.80